Time;durP1;ratioP1;P1;durP2;ratioP2;P2;SDS_P1;SDS_P2;PMS_P1;PMS_P2;Temp;Humidity;BMP_temperature;BMP_pressure;BME280_temperature;BME280_humidity;BME280_pressure;Samples;Min_cycle;Max_cycle;Signal;HPM_P1;HPM_P2
2021/03/15 00:01:16;;;;;;;;;;;20.50;33.90;;;;;;505462;236;1097;-70
2021/03/15 00:03:17;;;;;;;;;;;20.60;33.80;;;;;;504832;236;1103;-70
2021/03/15 00:05:18;;;;;;;;;;;20.60;33.70;;;;;;505500;236;951;-70
2021/03/15 00:07:19;;;;;;;;;;;20.60;33.70;;;;;;490840;241;1111;-71
2021/03/15 00:09:21;;;;;;;;;;;20.70;33.60;;;;;;488984;241;2178;-70
2021/03/15 00:11:22;;;;;;;;;;;20.80;33.50;;;;;;496123;239;1002;-70
2021/03/15 00:13:23;;;;;;;;;;;20.80;33.50;;;;;;504826;236;989;-70
2021/03/15 00:15:25;;;;;;;;;;;20.80;33.40;;;;;;505629;234;1072;-70
2021/03/15 00:17:26;;;;;;;;;;;20.80;33.40;;;;;;504685;236;1068;-70
2021/03/15 00:19:27;;;;;;;;;;;20.90;33.40;;;;;;505545;234;1043;-70
2021/03/15 00:21:28;;;;;;;;;;;20.80;33.40;;;;;;504648;236;996;-70
2021/03/15 00:23:30;;;;;;;;;;;21.00;33.40;;;;;;505457;232;1321;-70
2021/03/15 00:25:31;;;;;;;;;;;20.90;33.30;;;;;;504679;236;1081;-70
2021/03/15 00:27:32;;;;;;;;;;;20.80;33.50;;;;;;505499;236;1032;-70
2021/03/15 00:29:33;;;;;;;;;;;20.90;33.50;;;;;;504693;236;2131;-70
2021/03/15 00:31:35;;;;;;;;;;;20.80;33.50;;;;;;505489;236;1151;-70
2021/03/15 00:33:36;;;;;;;;;;;20.90;33.50;;;;;;504723;236;924;-70
2021/03/15 00:35:37;;;;;;;;;;;20.80;33.60;;;;;;505499;236;1208;-70
2021/03/15 00:37:39;;;;;;;;;;;21.00;33.30;;;;;;504526;233;1151;-70
2021/03/15 00:39:40;;;;;;;;;;;21.00;33.30;;;;;;505421;236;1183;-70
2021/03/15 00:41:41;;;;;;;;;;;20.80;33.40;;;;;;504562;236;1126;-70
2021/03/15 00:43:43;;;;;;;;;;;20.80;33.50;;;;;;505511;236;1025;-70
2021/03/15 00:45:44;;;;;;;;;;;20.90;33.50;;;;;;504790;236;1067;-70
2021/03/15 00:47:45;;;;;;;;;;;20.80;33.40;;;;;;505411;236;1150;-70
2021/03/15 00:49:47;;;;;;;;;;;20.90;33.40;;;;;;504650;236;2133;-70
2021/03/15 00:51:48;;;;;;;;;;;20.90;33.30;;;;;;505450;236;1202;-70
2021/03/15 00:53:49;;;;;;;;;;;21.00;33.30;;;;;;504730;236;1105;-70
2021/03/15 00:55:51;;;;;;;;;;;20.90;33.30;;;;;;505558;234;1023;-70
2021/03/15 00:57:52;;;;;;;;;;;21.00;33.30;;;;;;504732;236;1046;-70
2021/03/15 00:59:53;;;;;;;;;;;21.00;33.20;;;;;;505458;235;1110;-70
2021/03/15 01:01:54;;;;;;;;;;;21.00;33.10;;;;;;490722;242;1260;-70
2021/03/15 01:03:56;;;;;;;;;;;20.90;33.30;;;;;;495734;238;1029;-70
2021/03/15 01:05:57;;;;;;;;;;;20.70;33.60;;;;;;504667;236;1031;-70
2021/03/15 01:07:58;;;;;;;;;;;20.70;33.70;;;;;;505576;234;1129;-70
2021/03/15 01:10:00;;;;;;;;;;;20.70;33.70;;;;;;489991;242;2189;-70
2021/03/15 01:12:01;;;;;;;;;;;20.80;33.60;;;;;;499990;235;1199;-70
2021/03/15 01:14:02;;;;;;;;;;;20.80;33.50;;;;;;488993;242;1089;-70
2021/03/15 01:16:03;;;;;;;;;;;21.00;33.30;;;;;;496113;239;975;-70
2021/03/15 01:18:05;;;;;;;;;;;21.00;33.10;;;;;;504749;236;1183;-70
2021/03/15 01:20:06;;;;;;;;;;;21.00;33.30;;;;;;505515;236;963;-70
2021/03/15 01:22:07;;;;;;;;;;;20.90;33.30;;;;;;504692;236;1046;-70
2021/03/15 01:24:08;;;;;;;;;;;21.00;33.20;;;;;;505510;236;1161;-70
2021/03/15 01:26:10;;;;;;;;;;;21.00;33.30;;;;;;504639;236;1148;-70
2021/03/15 01:28:11;;;;;;;;;;;20.90;33.20;;;;;;505582;236;1142;-70
2021/03/15 01:30:12;;;;;;;;;;;20.90;33.30;;;;;;504666;236;2182;-70
2021/03/15 01:32:14;;;;;;;;;;;20.90;33.30;;;;;;505538;234;1073;-70
2021/03/15 01:34:15;;;;;;;;;;;21.00;33.20;;;;;;504670;236;1050;-70
2021/03/15 01:36:16;;;;;;;;;;;21.00;33.30;;;;;;505424;235;1202;-70
2021/03/15 01:38:17;;;;;;;;;;;21.00;33.20;;;;;;504586;236;1026;-70
2021/03/15 01:40:19;;;;;;;;;;;21.00;33.10;;;;;;505504;236;1252;-70
2021/03/15 01:42:20;;;;;;;;;;;20.90;33.30;;;;;;490793;241;1134;-70
2021/03/15 01:44:21;;;;;;;;;;;21.00;33.40;;;;;;495649;239;973;-70
2021/03/15 01:46:23;;;;;;;;;;;20.90;33.30;;;;;;504545;236;1095;-70
2021/03/15 01:48:24;;;;;;;;;;;20.80;33.40;;;;;;505522;234;967;-70
2021/03/15 01:50:25;;;;;;;;;;;20.90;33.40;;;;;;504641;236;2138;-70
2021/03/15 01:52:26;;;;;;;;;;;20.90;33.40;;;;;;505616;234;1183;-70
2021/03/15 01:54:28;;;;;;;;;;;20.90;33.40;;;;;;504672;236;1206;-70
2021/03/15 01:56:29;;;;;;;;;;;20.80;33.40;;;;;;505489;236;1201;-70
2021/03/15 01:58:30;;;;;;;;;;;21.00;33.30;;;;;;490889;242;1134;-70
2021/03/15 02:00:32;;;;;;;;;;;21.00;33.10;;;;;;500746;236;945;-70
2021/03/15 02:02:33;;;;;;;;;;;21.00;33.20;;;;;;489023;242;1192;-70
2021/03/15 02:04:34;;;;;;;;;;;20.80;33.40;;;;;;496273;239;960;-70
2021/03/15 02:06:35;;;;;;;;;;;20.80;33.50;;;;;;504637;236;1136;-70
2021/03/15 02:08:37;;;;;;;;;;;20.80;33.50;;;;;;505440;236;1059;-70
2021/03/15 02:10:38;;;;;;;;;;;20.90;33.40;;;;;;504731;236;2178;-70
2021/03/15 02:12:39;;;;;;;;;;;20.90;33.30;;;;;;505412;236;1092;-70
2021/03/15 02:14:41;;;;;;;;;;;20.90;33.30;;;;;;504719;236;1060;-70
2021/03/15 02:16:42;;;;;;;;;;;20.80;33.40;;;;;;505507;236;1295;-70
2021/03/15 02:18:43;;;;;;;;;;;20.80;33.50;;;;;;504677;236;1023;-70
2021/03/15 02:20:44;;;;;;;;;;;20.80;33.50;;;;;;505594;234;1061;-70
2021/03/15 02:22:46;;;;;;;;;;;20.80;33.50;;;;;;504617;236;1091;-70
2021/03/15 02:24:47;;;;;;;;;;;20.90;33.40;;;;;;505271;236;1052;-70
2021/03/15 02:26:49;;;;;;;;;;;20.90;33.30;;;;;;504681;236;1225;-70
2021/03/15 02:28:50;;;;;;;;;;;21.00;33.20;;;;;;505614;234;951;-70
2021/03/15 02:30:51;;;;;;;;;;;21.10;33.10;;;;;;490770;242;2199;-70
2021/03/15 02:32:52;;;;;;;;;;;21.00;33.10;;;;;;496776;239;1081;-70
2021/03/15 02:34:54;;;;;;;;;;;21.00;33.20;;;;;;504654;236;1052;-70
2021/03/15 02:36:55;;;;;;;;;;;20.90;33.20;;;;;;505622;236;1103;-70
2021/03/15 02:38:56;;;;;;;;;;;20.90;33.30;;;;;;504702;236;1009;-70
2021/03/15 02:40:58;;;;;;;;;;;20.90;33.30;;;;;;505495;236;1144;-70
2021/03/15 02:42:59;;;;;;;;;;;20.90;33.20;;;;;;504707;236;963;-70
2021/03/15 02:45:00;;;;;;;;;;;21.00;33.20;;;;;;505568;234;1050;-70
2021/03/15 02:47:01;;;;;;;;;;;20.90;33.20;;;;;;504738;236;1063;-70
2021/03/15 02:49:03;;;;;;;;;;;20.90;33.30;;;;;;505551;234;1036;-70
2021/03/15 02:51:04;;;;;;;;;;;20.80;33.30;;;;;;504740;236;2186;-70
2021/03/15 02:53:05;;;;;;;;;;;20.90;33.30;;;;;;505607;234;1175;-70
2021/03/15 02:55:06;;;;;;;;;;;20.90;33.40;;;;;;504716;236;1041;-70
2021/03/15 02:57:08;;;;;;;;;;;21.00;33.20;;;;;;505464;236;1231;-70
2021/03/15 02:59:09;;;;;;;;;;;21.00;33.20;;;;;;504724;236;1043;-70
2021/03/15 03:01:10;;;;;;;;;;;20.90;33.20;;;;;;505478;235;1015;-70
2021/03/15 03:03:12;;;;;;;;;;;21.00;33.20;;;;;;504736;236;1026;-70
2021/03/15 03:05:13;;;;;;;;;;;20.90;33.30;;;;;;505535;236;1008;-70
2021/03/15 03:07:14;;;;;;;;;;;20.80;33.30;;;;;;504735;236;1017;-70
2021/03/15 03:09:15;;;;;;;;;;;20.80;33.30;;;;;;505524;236;1047;-70
2021/03/15 03:11:17;;;;;;;;;;;20.90;33.30;;;;;;499617;236;2195;-70
2021/03/15 03:13:18;;;;;;;;;;;20.90;33.30;;;;;;485203;243;1110;-70
2021/03/15 03:15:19;;;;;;;;;;;20.90;33.10;;;;;;493950;240;1033;-70
2021/03/15 03:17:21;;;;;;;;;;;21.00;33.10;;;;;;504693;236;955;-70
2021/03/15 03:19:22;;;;;;;;;;;21.00;33.10;;;;;;505591;234;1020;-70
2021/03/15 03:21:23;;;;;;;;;;;20.90;33.10;;;;;;504652;236;958;-70
2021/03/15 03:23:24;;;;;;;;;;;20.90;33.20;;;;;;505486;235;1033;-70
2021/03/15 03:25:26;;;;;;;;;;;20.90;33.20;;;;;;504696;236;964;-70
2021/03/15 03:27:27;;;;;;;;;;;20.90;33.30;;;;;;505585;236;1180;-70
2021/03/15 03:29:28;;;;;;;;;;;20.80;33.20;;;;;;504626;236;1096;-70
2021/03/15 03:31:30;;;;;;;;;;;20.90;33.30;;;;;;505447;235;2126;-70
2021/03/15 03:33:31;;;;;;;;;;;21.00;33.10;;;;;;504733;236;1094;-70
2021/03/15 03:35:33;;;;;;;;;;;21.00;33.00;;;;;;505534;236;1095;-70
2021/03/15 03:37:34;;;;;;;;;;;21.00;32.90;;;;;;504631;236;1090;-70
2021/03/15 03:39:35;;;;;;;;;;;20.90;33.10;;;;;;505462;236;940;-70
2021/03/15 03:41:36;;;;;;;;;;;20.90;33.20;;;;;;504596;236;1516;-70
2021/03/15 03:43:38;;;;;;;;;;;20.90;33.30;;;;;;505644;236;1060;-70
2021/03/15 03:45:39;;;;;;;;;;;20.90;33.30;;;;;;490475;242;1024;-70
2021/03/15 03:47:40;;;;;;;;;;;20.90;33.30;;;;;;487221;242;1026;-70
2021/03/15 03:49:42;;;;;;;;;;;20.80;33.20;;;;;;492874;241;1064;-70
2021/03/15 03:51:43;;;;;;;;;;;20.80;33.20;;;;;;504400;236;2176;-70
2021/03/15 03:53:44;;;;;;;;;;;20.80;33.20;;;;;;505545;235;1062;-70
2021/03/15 03:55:45;;;;;;;;;;;20.90;33.30;;;;;;505517;236;953;-70
2021/03/15 03:57:47;;;;;;;;;;;20.70;33.30;;;;;;505404;236;1150;-70
2021/03/15 03:59:48;;;;;;;;;;;20.80;33.30;;;;;;505568;236;963;-70
2021/03/15 04:01:49;;;;;;;;;;;20.80;33.20;;;;;;505427;235;1163;-70
2021/03/15 04:03:51;;;;;;;;;;;20.90;33.00;;;;;;505520;236;942;-70
2021/03/15 04:05:52;;;;;;;;;;;20.80;33.10;;;;;;505505;236;1201;-70
2021/03/15 04:07:53;;;;;;;;;;;20.80;33.10;;;;;;505383;236;1156;-70
2021/03/15 04:09:55;;;;;;;;;;;20.80;33.20;;;;;;505496;236;1008;-70
2021/03/15 04:11:56;;;;;;;;;;;20.80;33.20;;;;;;505416;236;2177;-70
2021/03/15 04:13:57;;;;;;;;;;;20.80;33.20;;;;;;505481;236;1000;-70
2021/03/15 04:15:58;;;;;;;;;;;20.70;33.20;;;;;;505665;235;1138;-70
2021/03/15 04:18:00;;;;;;;;;;;20.80;33.20;;;;;;505580;235;1127;-70
2021/03/15 04:20:01;;;;;;;;;;;20.80;33.10;;;;;;505372;235;1168;-70
2021/03/15 04:22:03;;;;;;;;;;;20.80;33.20;;;;;;505509;236;1142;-70
2021/03/15 04:24:04;;;;;;;;;;;20.70;33.20;;;;;;505505;236;1072;-70
2021/03/15 04:26:05;;;;;;;;;;;20.80;33.20;;;;;;505486;235;1010;-70
2021/03/15 04:28:07;;;;;;;;;;;20.70;33.20;;;;;;505505;236;1160;-70
2021/03/15 04:30:08;;;;;;;;;;;20.80;33.20;;;;;;505570;235;1176;-70
2021/03/15 04:32:09;;;;;;;;;;;20.80;33.00;;;;;;505474;236;2122;-70
2021/03/15 04:34:10;;;;;;;;;;;20.80;33.00;;;;;;505410;236;1051;-70
2021/03/15 04:36:12;;;;;;;;;;;20.80;33.10;;;;;;505517;236;1021;-70
2021/03/15 04:38:13;;;;;;;;;;;20.70;33.20;;;;;;505632;236;1071;-70
2021/03/15 04:40:14;;;;;;;;;;;20.70;33.20;;;;;;505574;235;1422;-70
2021/03/15 04:42:15;;;;;;;;;;;20.70;33.20;;;;;;505471;235;1139;-70
2021/03/15 04:44:17;;;;;;;;;;;20.70;33.20;;;;;;505570;235;1030;-70
2021/03/15 04:46:18;;;;;;;;;;;20.80;33.10;;;;;;505487;236;1086;-70
2021/03/15 04:48:20;;;;;;;;;;;20.70;33.10;;;;;;505517;236;1017;-70
2021/03/15 04:50:21;;;;;;;;;;;20.80;33.20;;;;;;505564;235;2190;-70
2021/03/15 04:52:22;;;;;;;;;;;20.70;33.10;;;;;;505405;235;1170;-70
2021/03/15 04:54:23;;;;;;;;;;;20.60;33.20;;;;;;505498;236;1055;-70
2021/03/15 04:56:24;;;;;;;;;;;20.70;33.20;;;;;;505679;233;1255;-70
2021/03/15 04:58:26;;;;;;;;;;;20.80;33.10;;;;;;505474;236;1110;-70
2021/03/15 05:00:27;;;;;;;;;;;20.70;33.10;;;;;;505492;236;1052;-70
2021/03/15 05:02:28;;;;;;;;;;;20.80;33.00;;;;;;505390;236;1234;-70
2021/03/15 05:04:29;;;;;;;;;;;20.70;33.10;;;;;;505498;236;1031;-70
2021/03/15 05:06:31;;;;;;;;;;;20.70;33.20;;;;;;505475;235;1207;-70
2021/03/15 05:08:32;;;;;;;;;;;20.60;33.20;;;;;;505534;236;1010;-70
2021/03/15 05:10:33;;;;;;;;;;;20.60;33.30;;;;;;505589;235;2138;-70
2021/03/15 05:12:35;;;;;;;;;;;20.60;33.30;;;;;;505405;236;1157;-70
2021/03/15 05:14:36;;;;;;;;;;;20.70;33.30;;;;;;505425;235;1006;-70
2021/03/15 05:16:37;;;;;;;;;;;20.70;33.20;;;;;;505548;235;1037;-70
2021/03/15 05:18:39;;;;;;;;;;;20.70;33.30;;;;;;505488;236;1017;-70
2021/03/15 05:20:40;;;;;;;;;;;20.70;33.30;;;;;;505475;235;1048;-70
2021/03/15 05:22:42;;;;;;;;;;;20.70;33.40;;;;;;505424;235;1032;-70
2021/03/15 05:24:43;;;;;;;;;;;20.70;33.30;;;;;;505463;235;1057;-70
2021/03/15 05:26:44;;;;;;;;;;;20.60;33.30;;;;;;505541;236;1040;-70
2021/03/15 05:28:46;;;;;;;;;;;20.80;33.30;;;;;;505496;235;1275;-70
2021/03/15 05:30:47;;;;;;;;;;;20.80;33.20;;;;;;505468;235;2137;-70
2021/03/15 05:32:48;;;;;;;;;;;20.90;33.20;;;;;;505356;236;1170;-70
2021/03/15 05:34:49;;;;;;;;;;;20.80;33.10;;;;;;505324;235;1030;-70
2021/03/15 05:36:51;;;;;;;;;;;20.90;33.10;;;;;;505313;236;1044;-70
2021/03/15 05:38:52;;;;;;;;;;;20.90;33.00;;;;;;505257;236;1108;-70
2021/03/15 05:40:53;;;;;;;;;;;20.90;33.10;;;;;;505309;236;1150;-70
2021/03/15 05:42:56;;;;;;;;;;;20.80;33.10;;;;;;505399;236;1153;-70
2021/03/15 05:44:58;;;;;;;;;;;20.60;33.40;;;;;;505397;235;1056;-70
2021/03/15 05:46:59;;;;;;;;;;;20.60;33.50;;;;;;505321;236;1075;-70
2021/03/15 05:49:00;;;;;;;;;;;20.50;33.60;;;;;;505424;235;1027;-70
2021/03/15 05:51:02;;;;;;;;;;;20.60;33.50;;;;;;505327;235;2130;-70
2021/03/15 05:53:03;;;;;;;;;;;20.50;33.50;;;;;;505487;235;1050;-70
2021/03/15 05:55:04;;;;;;;;;;;20.60;33.50;;;;;;505405;235;1067;-70
2021/03/15 05:57:06;;;;;;;;;;;20.60;33.50;;;;;;505431;235;1085;-70
2021/03/15 05:59:07;;;;;;;;;;;20.50;33.50;;;;;;505153;235;1195;-70
2021/03/15 06:01:08;;;;;;;;;;;20.60;33.50;;;;;;505420;235;1066;-70
2021/03/15 06:03:10;;;;;;;;;;;20.60;33.30;;;;;;505332;236;1046;-70
2021/03/15 06:05:11;;;;;;;;;;;20.60;33.30;;;;;;505291;236;1051;-70
2021/03/15 06:07:12;;;;;;;;;;;20.50;33.40;;;;;;505269;236;1021;-70
2021/03/15 06:09:14;;;;;;;;;;;20.60;33.40;;;;;;505292;235;1044;-70
2021/03/15 06:11:17;;;;;;;;;;;20.60;33.50;;;;;;505253;234;2197;-70
2021/03/15 06:13:17;;;;;;;;;;;20.50;33.50;;;;;;505210;235;1327;-70
2021/03/15 06:15:18;;;;;;;;;;;20.50;33.60;;;;;;505395;236;1059;-70
2021/03/15 06:17:20;;;;;;;;;;;20.50;33.60;;;;;;505226;236;1003;-70
2021/03/15 06:19:21;;;;;;;;;;;20.50;33.50;;;;;;505179;236;1027;-70
2021/03/15 06:21:22;;;;;;;;;;;20.50;33.50;;;;;;505326;235;1105;-69
2021/03/15 06:23:24;;;;;;;;;;;20.50;33.50;;;;;;505282;235;1058;-70
2021/03/15 06:25:25;;;;;;;;;;;20.60;33.50;;;;;;505317;234;1055;-70
2021/03/15 06:27:26;;;;;;;;;;;20.50;33.50;;;;;;505234;235;1173;-70
2021/03/15 06:29:27;;;;;;;;;;;20.50;33.50;;;;;;505304;235;1227;-70
2021/03/15 06:31:29;;;;;;;;;;;20.50;33.50;;;;;;505119;235;2123;-70
2021/03/15 06:33:30;;;;;;;;;;;20.60;33.30;;;;;;505187;235;1142;-70
2021/03/15 06:35:31;;;;;;;;;;;20.60;33.30;;;;;;505087;235;1067;-70
2021/03/15 06:37:32;;;;;;;;;;;20.60;33.40;;;;;;504987;236;1100;-70
2021/03/15 06:39:34;;;;;;;;;;;20.50;33.60;;;;;;505226;235;1080;-70
2021/03/15 06:41:35;;;;;;;;;;;20.50;33.50;;;;;;505089;235;1193;-70
2021/03/15 06:43:36;;;;;;;;;;;20.50;33.50;;;;;;505226;236;1003;-70
2021/03/15 06:45:38;;;;;;;;;;;20.50;33.30;;;;;;505042;236;1543;-70
2021/03/15 06:47:39;;;;;;;;;;;20.60;33.30;;;;;;504995;236;1026;-70
2021/03/15 06:49:40;;;;;;;;;;;20.70;33.40;;;;;;505011;235;1018;-70
2021/03/15 06:51:41;;;;;;;;;;;20.60;33.50;;;;;;505032;236;2169;-70
2021/03/15 06:53:43;;;;;;;;;;;20.50;33.60;;;;;;505101;235;1009;-70
2021/03/15 06:55:44;;;;;;;;;;;20.50;33.70;;;;;;505102;236;1037;-70
2021/03/15 06:57:45;;;;;;;;;;;20.50;33.70;;;;;;505101;235;1203;-70
2021/03/15 06:59:46;;;;;;;;;;;20.50;33.60;;;;;;504929;236;1182;-70
2021/03/15 07:01:48;;;;;;;;;;;20.60;33.60;;;;;;504815;236;1044;-70
2021/03/15 07:03:49;;;;;;;;;;;20.70;33.50;;;;;;504973;235;1093;-70
2021/03/15 07:05:50;;;;;;;;;;;20.60;33.60;;;;;;504962;236;1158;-70
2021/03/15 07:07:52;;;;;;;;;;;20.60;33.60;;;;;;504950;235;1060;-70
2021/03/15 07:09:54;;;;;;;;;;;20.60;33.50;;;;;;504945;235;1026;-70
2021/03/15 07:11:54;;;;;;;;;;;20.70;33.60;;;;;;504901;235;2177;-70
2021/03/15 07:13:55;;;;;;;;;;;20.70;33.50;;;;;;505032;235;1028;-70
2021/03/15 07:15:57;;;;;;;;;;;20.60;33.50;;;;;;505058;236;1201;-70
2021/03/15 07:17:58;;;;;;;;;;;20.50;33.70;;;;;;504952;235;1109;-70
2021/03/15 07:19:59;;;;;;;;;;;20.50;33.80;;;;;;504908;235;1040;-70
2021/03/15 07:22:01;;;;;;;;;;;20.50;33.80;;;;;;504936;235;1193;-70
2021/03/15 07:24:02;;;;;;;;;;;20.50;33.90;;;;;;504924;235;1031;-70
2021/03/15 07:26:03;;;;;;;;;;;20.60;33.80;;;;;;504959;236;1078;-70
2021/03/15 07:28:05;;;;;;;;;;;20.50;33.90;;;;;;504949;235;1140;-70
2021/03/15 07:30:06;;;;;;;;;;;20.50;34.00;;;;;;504885;235;1114;-70
2021/03/15 07:32:07;;;;;;;;;;;20.50;33.90;;;;;;504529;235;2186;-70
2021/03/15 07:34:08;;;;;;;;;;;20.60;33.70;;;;;;504787;235;1086;-70
2021/03/15 07:36:10;;;;;;;;;;;20.50;33.80;;;;;;504792;235;1013;-70
2021/03/15 07:38:11;;;;;;;;;;;20.50;33.80;;;;;;504880;235;1091;-70
2021/03/15 07:40:12;;;;;;;;;;;20.40;33.90;;;;;;504623;236;1150;-70
2021/03/15 07:42:14;;;;;;;;;;;20.50;33.90;;;;;;504640;235;1222;-70
2021/03/15 07:44:15;;;;;;;;;;;20.50;33.80;;;;;;504865;235;1197;-70
2021/03/15 07:46:16;;;;;;;;;;;20.40;33.90;;;;;;504982;235;1183;-70
2021/03/15 07:48:17;;;;;;;;;;;20.50;33.90;;;;;;504792;236;1134;-70
2021/03/15 07:50:19;;;;;;;;;;;20.40;34.00;;;;;;504904;235;1137;-70
2021/03/15 07:52:20;;;;;;;;;;;20.40;34.10;;;;;;504731;235;2174;-70
2021/03/15 07:54:21;;;;;;;;;;;20.40;34.00;;;;;;504910;235;1160;-70
2021/03/15 07:56:22;;;;;;;;;;;20.40;33.90;;;;;;504810;236;1159;-70
2021/03/15 07:58:24;;;;;;;;;;;20.40;34.00;;;;;;504787;236;1088;-70
2021/03/15 08:00:25;;;;;;;;;;;20.40;34.00;;;;;;504591;235;1145;-70
2021/03/15 08:02:26;;;;;;;;;;;20.50;34.00;;;;;;504443;235;1077;-70
2021/03/15 08:04:28;;;;;;;;;;;20.50;33.80;;;;;;504655;235;1067;-70
2021/03/15 08:06:29;;;;;;;;;;;20.50;33.80;;;;;;504502;236;1164;-70
2021/03/15 08:08:30;;;;;;;;;;;20.50;34.00;;;;;;504619;235;1080;-70
2021/03/15 08:10:31;;;;;;;;;;;20.50;33.80;;;;;;504712;235;1088;-69
2021/03/15 08:12:33;;;;;;;;;;;20.40;33.80;;;;;;504617;235;2126;-70
2021/03/15 08:14:34;;;;;;;;;;;20.50;33.80;;;;;;504737;236;1077;-70
2021/03/15 08:16:35;;;;;;;;;;;20.50;33.80;;;;;;504377;236;1178;-70
2021/03/15 08:18:36;;;;;;;;;;;20.50;33.80;;;;;;504646;235;1024;-70
2021/03/15 08:20:38;;;;;;;;;;;20.50;33.90;;;;;;504571;236;1032;-70
2021/03/15 08:22:39;;;;;;;;;;;20.40;33.90;;;;;;504663;236;1215;-69
2021/03/15 08:24:40;;;;;;;;;;;20.40;34.00;;;;;;504745;235;1075;-70
2021/03/15 08:26:42;;;;;;;;;;;20.40;33.90;;;;;;504622;235;1180;-70
2021/03/15 08:28:43;;;;;;;;;;;20.40;33.80;;;;;;504715;235;1089;-70
2021/03/15 08:30:44;;;;;;;;;;;20.50;33.80;;;;;;504667;235;1134;-70
2021/03/15 08:32:46;;;;;;;;;;;20.50;33.70;;;;;;504476;236;2178;-71
2021/03/15 08:34:47;;;;;;;;;;;20.50;33.50;;;;;;504560;235;1054;-70
2021/03/15 08:36:48;;;;;;;;;;;20.50;33.70;;;;;;504514;235;1082;-70
2021/03/15 08:38:50;;;;;;;;;;;20.50;33.80;;;;;;504722;236;1025;-70
2021/03/15 08:40:51;;;;;;;;;;;20.50;33.90;;;;;;504715;235;1079;-70
2021/03/15 08:42:52;;;;;;;;;;;20.40;33.80;;;;;;504496;236;1097;-71
2021/03/15 08:44:53;;;;;;;;;;;20.50;33.90;;;;;;504691;236;1045;-70
2021/03/15 08:46:55;;;;;;;;;;;20.50;33.90;;;;;;504673;235;1245;-70
2021/03/15 08:48:56;;;;;;;;;;;20.50;33.80;;;;;;504704;236;1246;-70
2021/03/15 08:51:00;;;;;;;;;;;20.40;33.80;;;;;;504689;235;1125;-70
2021/03/15 08:53:01;;;;;;;;;;;20.40;33.90;;;;;;504700;235;2134;-70
2021/03/15 08:55:03;;;;;;;;;;;20.60;33.80;;;;;;504674;235;1053;-71
2021/03/15 08:57:04;;;;;;;;;;;20.50;33.70;;;;;;504669;235;1151;-70
2021/03/15 08:59:06;;;;;;;;;;;20.60;33.70;;;;;;504735;235;1081;-70
2021/03/15 09:01:07;;;;;;;;;;;20.60;33.60;;;;;;504727;236;1132;-70
2021/03/15 09:03:08;;;;;;;;;;;20.70;33.60;;;;;;504627;235;1052;-70
2021/03/15 09:05:09;;;;;;;;;;;20.70;33.50;;;;;;504491;235;1185;-70
2021/03/15 09:07:10;;;;;;;;;;;20.70;33.60;;;;;;504436;235;1087;-70
2021/03/15 09:09:12;;;;;;;;;;;20.80;33.60;;;;;;504424;235;1135;-70
2021/03/15 09:11:13;;;;;;;;;;;20.80;33.50;;;;;;504479;235;1057;-70
2021/03/15 09:13:15;;;;;;;;;;;20.80;33.40;;;;;;504514;236;2194;-70
2021/03/15 09:15:15;;;;;;;;;;;20.90;33.40;;;;;;504547;236;1289;-70
2021/03/15 09:17:17;;;;;;;;;;;20.80;33.40;;;;;;504536;235;1160;-70
2021/03/15 09:19:19;;;;;;;;;;;20.70;33.50;;;;;;504536;236;1020;-70
2021/03/15 09:21:20;;;;;;;;;;;20.80;33.50;;;;;;504475;236;1278;-70
2021/03/15 09:23:21;;;;;;;;;;;20.70;33.40;;;;;;504575;235;1127;-71
2021/03/15 09:25:23;;;;;;;;;;;20.80;33.40;;;;;;504538;235;1046;-70
2021/03/15 09:27:25;;;;;;;;;;;20.80;33.30;;;;;;504357;235;1285;-71
2021/03/15 09:29:25;;;;;;;;;;;20.80;33.30;;;;;;504292;236;1216;-70
2021/03/15 09:31:26;;;;;;;;;;;20.80;33.30;;;;;;504107;236;1237;-70
2021/03/15 09:33:28;;;;;;;;;;;20.80;33.30;;;;;;504342;236;2118;-70
2021/03/15 09:35:29;;;;;;;;;;;20.90;33.30;;;;;;504585;235;1055;-70
2021/03/15 09:37:30;;;;;;;;;;;20.90;33.30;;;;;;504589;235;1138;-70
2021/03/15 09:39:32;;;;;;;;;;;20.90;33.30;;;;;;504603;235;1060;-70
2021/03/15 09:41:33;;;;;;;;;;;20.90;33.40;;;;;;504517;236;1025;-70
2021/03/15 09:43:34;;;;;;;;;;;20.90;33.40;;;;;;504584;235;1047;-70
2021/03/15 09:45:36;;;;;;;;;;;20.80;33.40;;;;;;504406;236;1271;-70
2021/03/15 09:47:37;;;;;;;;;;;20.80;33.60;;;;;;504412;236;1168;-70
2021/03/15 09:49:38;;;;;;;;;;;20.80;33.60;;;;;;504490;236;1067;-70
2021/03/15 09:51:39;;;;;;;;;;;20.80;33.60;;;;;;504371;235;1249;-70
2021/03/15 09:53:41;;;;;;;;;;;20.80;33.60;;;;;;504557;235;2186;-71
2021/03/15 09:55:42;;;;;;;;;;;20.80;33.70;;;;;;504085;235;1375;-70
2021/03/15 09:57:43;;;;;;;;;;;20.80;33.70;;;;;;504286;236;1042;-70
2021/03/15 09:59:45;;;;;;;;;;;20.70;33.80;;;;;;504374;235;1059;-71
2021/03/15 10:01:46;;;;;;;;;;;20.70;34.00;;;;;;504164;235;1175;-70
2021/03/15 10:03:49;;;;;;;;;;;20.80;33.90;;;;;;504332;236;1093;-70
2021/03/15 10:05:49;;;;;;;;;;;20.70;34.00;;;;;;504120;235;1415;-70
2021/03/15 10:07:50;;;;;;;;;;;20.70;34.10;;;;;;504349;235;1288;-70
2021/03/15 10:09:51;;;;;;;;;;;20.70;34.20;;;;;;504212;236;1032;-70
2021/03/15 10:11:53;;;;;;;;;;;20.70;34.10;;;;;;504239;235;1313;-70
2021/03/15 10:13:54;;;;;;;;;;;20.60;34.30;;;;;;504241;235;2234;-70
2021/03/15 10:15:55;;;;;;;;;;;20.60;34.30;;;;;;504183;236;1111;-70
2021/03/15 10:17:57;;;;;;;;;;;20.70;34.40;;;;;;503304;236;1199;-70
2021/03/15 10:19:58;;;;;;;;;;;20.60;34.40;;;;;;504115;236;1080;-70
2021/03/15 10:21:59;;;;;;;;;;;20.60;34.30;;;;;;504138;235;1187;-70
2021/03/15 10:24:01;;;;;;;;;;;20.70;34.20;;;;;;504245;235;1056;-70
2021/03/15 10:26:02;;;;;;;;;;;20.80;34.30;;;;;;503464;235;1210;-70
2021/03/15 10:28:03;;;;;;;;;;;20.70;34.20;;;;;;504410;235;1226;-70
2021/03/15 10:30:04;;;;;;;;;;;20.70;34.30;;;;;;504178;236;1072;-70
2021/03/15 10:32:06;;;;;;;;;;;20.70;34.20;;;;;;504101;235;1136;-70
2021/03/15 10:34:07;;;;;;;;;;;20.80;33.80;;;;;;504237;235;2178;-71
2021/03/15 10:36:08;;;;;;;;;;;20.80;33.80;;;;;;504182;236;1250;-70
2021/03/15 10:38:10;;;;;;;;;;;20.70;34.10;;;;;;504431;235;1095;-70
2021/03/15 10:40:11;;;;;;;;;;;20.70;34.20;;;;;;504388;235;1029;-70
2021/03/15 10:42:12;;;;;;;;;;;20.70;34.30;;;;;;504471;235;1141;-70
2021/03/15 10:44:14;;;;;;;;;;;20.80;34.20;;;;;;504538;236;1061;-70
2021/03/15 10:46:17;;;;;;;;;;;20.90;34.20;;;;;;504517;236;1211;-70
2021/03/15 10:48:18;;;;;;;;;;;21.00;34.10;;;;;;504357;235;1445;-71
2021/03/15 10:50:19;;;;;;;;;;;21.10;33.90;;;;;;504415;235;1062;-70
2021/03/15 10:52:20;;;;;;;;;;;21.20;33.90;;;;;;504454;236;2189;-70
2021/03/15 10:54:21;;;;;;;;;;;21.20;33.80;;;;;;504511;235;1052;-70
2021/03/15 10:56:22;;;;;;;;;;;21.20;33.80;;;;;;503537;235;1175;-71
2021/03/15 10:58:24;;;;;;;;;;;21.20;33.80;;;;;;504431;236;1118;-70
2021/03/15 11:00:25;;;;;;;;;;;21.10;33.90;;;;;;504393;236;1032;-70
2021/03/15 11:02:26;;;;;;;;;;;21.10;34.00;;;;;;504337;235;1075;-70
2021/03/15 11:04:28;;;;;;;;;;;21.20;33.80;;;;;;504351;236;1042;-70
2021/03/15 11:06:29;;;;;;;;;;;21.20;33.80;;;;;;504101;236;1067;-70
2021/03/15 11:08:30;;;;;;;;;;;21.20;33.80;;;;;;504129;236;1102;-70
2021/03/15 11:10:32;;;;;;;;;;;21.10;33.70;;;;;;503906;236;1141;-71
2021/03/15 11:12:33;;;;;;;;;;;21.10;33.80;;;;;;503921;235;2201;-70
2021/03/15 11:14:34;;;;;;;;;;;21.10;33.80;;;;;;496198;237;1051;-70
2021/03/15 11:16:35;;;;;;;;;;;21.10;33.60;;;;;;492593;239;1199;-70
2021/03/15 11:18:37;;;;;;;;;;;21.10;33.60;;;;;;502041;236;1135;-70
2021/03/15 11:20:38;;;;;;;;;;;21.10;33.60;;;;;;492727;240;1208;-70
2021/03/15 11:22:39;;;;;;;;;;;21.10;33.60;;;;;;502071;236;1319;-70
2021/03/15 11:24:41;;;;;;;;;;;21.00;33.70;;;;;;494205;239;1193;-70
2021/03/15 11:26:42;;;;;;;;;;;20.90;33.70;;;;;;503535;236;1306;-71
2021/03/15 11:28:43;;;;;;;;;;;20.90;33.80;;;;;;504491;235;1118;-70
2021/03/15 11:30:44;;;;;;;;;;;21.00;33.70;;;;;;504352;235;1125;-70
2021/03/15 11:32:46;;;;;;;;;;;21.00;33.60;;;;;;504707;235;2123;-70
2021/03/15 11:34:47;;;;;;;;;;;21.00;33.50;;;;;;504941;235;1366;-70
2021/03/15 11:36:48;;;;;;;;;;;21.00;33.30;;;;;;505208;236;1206;-70
2021/03/15 11:38:49;;;;;;;;;;;21.00;33.40;;;;;;505371;235;1107;-70
2021/03/15 11:40:51;;;;;;;;;;;21.00;33.30;;;;;;505231;236;874;-70
2021/03/15 11:42:52;;;;;;;;;;;21.00;33.30;;;;;;505429;235;1016;-70
2021/03/15 11:44:53;;;;;;;;;;;21.00;33.20;;;;;;505287;235;838;-71
2021/03/15 11:46:55;;;;;;;;;;;21.10;33.30;;;;;;505125;235;1146;-70
2021/03/15 11:48:56;;;;;;;;;;;21.00;33.30;;;;;;504588;236;1095;-70
2021/03/15 11:50:57;;;;;;;;;;;20.90;33.50;;;;;;504374;236;1095;-70
2021/03/15 11:52:58;;;;;;;;;;;20.80;33.60;;;;;;504461;235;2177;-70
2021/03/15 11:55:00;;;;;;;;;;;20.90;33.70;;;;;;504274;235;1079;-70
2021/03/15 11:57:01;;;;;;;;;;;21.00;33.70;;;;;;503745;235;1153;-70